sensor_id;sensor_type;location;lat;lon;timestamp;P1;durP1;ratioP1;P2;durP2;ratioP2
8104;SDS011;4095;48.942;9.104;2023-08-06T00:02:21;5.63;;;4.57;;
8104;SDS011;4095;48.942;9.104;2023-08-06T00:04:46;4.40;;;4.00;;
8104;SDS011;4095;48.942;9.104;2023-08-06T00:07:12;4.63;;;4.20;;
8104;SDS011;4095;48.942;9.104;2023-08-06T00:09:37;4.83;;;4.10;;
8104;SDS011;4095;48.942;9.104;2023-08-06T00:12:03;5.10;;;4.60;;
8104;SDS011;4095;48.942;9.104;2023-08-06T00:14:29;6.50;;;4.53;;
8104;SDS011;4095;48.942;9.104;2023-08-06T00:16:55;6.00;;;4.83;;
8104;SDS011;4095;48.942;9.104;2023-08-06T00:19:21;5.67;;;5.07;;
8104;SDS011;4095;48.942;9.104;2023-08-06T00:21:47;5.77;;;5.20;;
8104;SDS011;4095;48.942;9.104;2023-08-06T00:24:12;4.80;;;4.40;;
8104;SDS011;4095;48.942;9.104;2023-08-06T00:26:38;5.27;;;4.63;;
8104;SDS011;4095;48.942;9.104;2023-08-06T00:29:04;5.20;;;4.70;;
8104;SDS011;4095;48.942;9.104;2023-08-06T00:31:29;5.80;;;4.60;;
8104;SDS011;4095;48.942;9.104;2023-08-06T00:33:55;5.20;;;4.80;;
8104;SDS011;4095;48.942;9.104;2023-08-06T00:36:21;4.53;;;4.13;;
8104;SDS011;4095;48.942;9.104;2023-08-06T00:38:46;5.10;;;4.60;;
8104;SDS011;4095;48.942;9.104;2023-08-06T00:41:12;5.47;;;4.50;;
8104;SDS011;4095;48.942;9.104;2023-08-06T00:43:37;6.00;;;4.67;;
8104;SDS011;4095;48.942;9.104;2023-08-06T00:46:03;5.53;;;4.33;;
8104;SDS011;4095;48.942;9.104;2023-08-06T00:48:29;5.80;;;4.63;;
8104;SDS011;4095;48.942;9.104;2023-08-06T00:50:54;5.40;;;4.93;;
8104;SDS011;4095;48.942;9.104;2023-08-06T00:53:20;6.07;;;5.47;;
8104;SDS011;4095;48.942;9.104;2023-08-06T00:55:46;6.83;;;5.27;;
8104;SDS011;4095;48.942;9.104;2023-08-06T00:58:12;8.33;;;5.40;;
8104;SDS011;4095;48.942;9.104;2023-08-06T01:00:41;6.23;;;5.50;;
8104;SDS011;4095;48.942;9.104;2023-08-06T01:03:06;6.03;;;5.40;;
8104;SDS011;4095;48.942;9.104;2023-08-06T01:05:32;5.30;;;4.80;;
8104;SDS011;4095;48.942;9.104;2023-08-06T01:08:08;5.03;;;4.40;;
8104;SDS011;4095;48.942;9.104;2023-08-06T01:11:00;6.10;;;5.50;;
8104;SDS011;4095;48.942;9.104;2023-08-06T01:14:08;6.33;;;5.20;;
8104;SDS011;4095;48.942;9.104;2023-08-06T01:16:43;5.73;;;5.23;;
8104;SDS011;4095;48.942;9.104;2023-08-06T01:19:18;5.97;;;5.40;;
8104;SDS011;4095;48.942;9.104;2023-08-06T01:21:44;5.63;;;5.13;;
8104;SDS011;4095;48.942;9.104;2023-08-06T01:24:10;7.30;;;5.30;;
8104;SDS011;4095;48.942;9.104;2023-08-06T01:26:38;5.47;;;5.03;;
8104;SDS011;4095;48.942;9.104;2023-08-06T01:29:15;5.40;;;5.00;;
8104;SDS011;4095;48.942;9.104;2023-08-06T01:31:48;5.17;;;4.63;;
8104;SDS011;4095;48.942;9.104;2023-08-06T01:34:23;5.33;;;4.83;;
8104;SDS011;4095;48.942;9.104;2023-08-06T01:36:51;5.70;;;5.20;;
8104;SDS011;4095;48.942;9.104;2023-08-06T01:39:17;6.03;;;5.43;;
8104;SDS011;4095;48.942;9.104;2023-08-06T01:41:46;5.77;;;5.10;;
8104;SDS011;4095;48.942;9.104;2023-08-06T01:44:12;4.87;;;4.47;;
8104;SDS011;4095;48.942;9.104;2023-08-06T01:46:38;5.47;;;4.97;;
8104;SDS011;4095;48.942;9.104;2023-08-06T01:49:04;4.93;;;4.43;;
8104;SDS011;4095;48.942;9.104;2023-08-06T01:51:29;5.07;;;4.67;;
8104;SDS011;4095;48.942;9.104;2023-08-06T01:53:55;5.10;;;4.63;;
8104;SDS011;4095;48.942;9.104;2023-08-06T01:56:20;4.93;;;4.43;;
8104;SDS011;4095;48.942;9.104;2023-08-06T01:58:46;6.13;;;4.70;;
8104;SDS011;4095;48.942;9.104;2023-08-06T02:01:12;4.60;;;4.20;;
8104;SDS011;4095;48.942;9.104;2023-08-06T02:03:37;6.13;;;4.23;;
8104;SDS011;4095;48.942;9.104;2023-08-06T02:06:03;4.57;;;4.17;;
8104;SDS011;4095;48.942;9.104;2023-08-06T02:08:28;4.50;;;4.10;;
8104;SDS011;4095;48.942;9.104;2023-08-06T02:10:54;4.90;;;4.23;;
8104;SDS011;4095;48.942;9.104;2023-08-06T02:13:20;5.60;;;4.20;;
8104;SDS011;4095;48.942;9.104;2023-08-06T02:15:45;4.50;;;4.10;;
8104;SDS011;4095;48.942;9.104;2023-08-06T02:18:14;4.80;;;4.20;;
8104;SDS011;4095;48.942;9.104;2023-08-06T02:20:41;4.00;;;3.60;;
8104;SDS011;4095;48.942;9.104;2023-08-06T02:23:07;3.50;;;3.20;;
8104;SDS011;4095;48.942;9.104;2023-08-06T02:25:32;3.80;;;3.37;;
8104;SDS011;4095;48.942;9.104;2023-08-06T02:27:58;3.73;;;3.43;;
8104;SDS011;4095;48.942;9.104;2023-08-06T02:30:24;5.20;;;3.70;;
8104;SDS011;4095;48.942;9.104;2023-08-06T02:32:49;6.00;;;3.20;;
8104;SDS011;4095;48.942;9.104;2023-08-06T02:35:15;3.83;;;3.00;;
8104;SDS011;4095;48.942;9.104;2023-08-06T02:37:41;4.33;;;3.53;;
8104;SDS011;4095;48.942;9.104;2023-08-06T02:40:06;4.03;;;3.50;;
8104;SDS011;4095;48.942;9.104;2023-08-06T02:42:32;3.90;;;2.93;;
8104;SDS011;4095;48.942;9.104;2023-08-06T02:44:58;3.40;;;2.80;;
8104;SDS011;4095;48.942;9.104;2023-08-06T02:47:23;3.00;;;2.70;;
8104;SDS011;4095;48.942;9.104;2023-08-06T02:49:49;3.40;;;3.10;;
8104;SDS011;4095;48.942;9.104;2023-08-06T02:52:15;3.60;;;3.30;;
8104;SDS011;4095;48.942;9.104;2023-08-06T02:54:40;4.70;;;3.00;;
8104;SDS011;4095;48.942;9.104;2023-08-06T02:57:06;3.83;;;2.90;;
8104;SDS011;4095;48.942;9.104;2023-08-06T02:59:32;3.23;;;2.93;;
8104;SDS011;4095;48.942;9.104;2023-08-06T03:01:58;3.47;;;3.10;;
8104;SDS011;4095;48.942;9.104;2023-08-06T03:04:23;3.37;;;3.00;;
8104;SDS011;4095;48.942;9.104;2023-08-06T03:06:49;5.20;;;2.80;;
8104;SDS011;4095;48.942;9.104;2023-08-06T03:09:16;3.10;;;2.80;;
8104;SDS011;4095;48.942;9.104;2023-08-06T03:11:41;4.00;;;2.90;;
8104;SDS011;4095;48.942;9.104;2023-08-06T03:14:07;3.40;;;3.07;;
8104;SDS011;4095;48.942;9.104;2023-08-06T03:16:33;3.10;;;2.80;;
8104;SDS011;4095;48.942;9.104;2023-08-06T03:18:58;3.40;;;3.10;;
8104;SDS011;4095;48.942;9.104;2023-08-06T03:21:24;3.47;;;3.10;;
8104;SDS011;4095;48.942;9.104;2023-08-06T03:23:50;3.47;;;3.13;;
8104;SDS011;4095;48.942;9.104;2023-08-06T03:26:15;3.57;;;3.27;;
8104;SDS011;4095;48.942;9.104;2023-08-06T03:28:41;3.67;;;3.10;;
8104;SDS011;4095;48.942;9.104;2023-08-06T03:31:07;4.17;;;2.80;;
8104;SDS011;4095;48.942;9.104;2023-08-06T03:33:32;3.50;;;2.93;;
8104;SDS011;4095;48.942;9.104;2023-08-06T03:35:58;7.70;;;2.93;;
8104;SDS011;4095;48.942;9.104;2023-08-06T03:38:24;4.57;;;2.80;;
8104;SDS011;4095;48.942;9.104;2023-08-06T03:40:49;4.73;;;2.90;;
8104;SDS011;4095;48.942;9.104;2023-08-06T03:43:15;3.10;;;2.80;;
8104;SDS011;4095;48.942;9.104;2023-08-06T03:45:41;3.80;;;2.83;;
8104;SDS011;4095;48.942;9.104;2023-08-06T03:48:07;3.70;;;2.87;;
8104;SDS011;4095;48.942;9.104;2023-08-06T03:50:33;3.73;;;3.10;;
8104;SDS011;4095;48.942;9.104;2023-08-06T03:52:59;5.07;;;3.13;;
8104;SDS011;4095;48.942;9.104;2023-08-06T03:55:24;3.53;;;2.80;;
8104;SDS011;4095;48.942;9.104;2023-08-06T03:57:50;5.03;;;3.10;;
8104;SDS011;4095;48.942;9.104;2023-08-06T04:00:15;6.70;;;2.93;;
8104;SDS011;4095;48.942;9.104;2023-08-06T04:02:41;4.00;;;3.07;;
8104;SDS011;4095;48.942;9.104;2023-08-06T04:05:07;4.63;;;3.03;;
8104;SDS011;4095;48.942;9.104;2023-08-06T04:07:33;3.77;;;2.80;;
8104;SDS011;4095;48.942;9.104;2023-08-06T04:09:59;4.27;;;2.80;;
8104;SDS011;4095;48.942;9.104;2023-08-06T04:12:26;3.37;;;2.80;;
8104;SDS011;4095;48.942;9.104;2023-08-06T04:14:52;5.23;;;3.10;;
8104;SDS011;4095;48.942;9.104;2023-08-06T04:17:19;6.00;;;3.23;;
8104;SDS011;4095;48.942;9.104;2023-08-06T04:19:50;6.33;;;3.10;;
8104;SDS011;4095;48.942;9.104;2023-08-06T04:22:16;4.17;;;2.87;;
8104;SDS011;4095;48.942;9.104;2023-08-06T04:24:42;3.23;;;2.73;;
8104;SDS011;4095;48.942;9.104;2023-08-06T04:27:08;3.10;;;2.80;;
8104;SDS011;4095;48.942;9.104;2023-08-06T04:29:34;3.97;;;2.80;;
8104;SDS011;4095;48.942;9.104;2023-08-06T04:32:00;3.13;;;2.80;;
8104;SDS011;4095;48.942;9.104;2023-08-06T04:34:26;3.07;;;2.80;;
8104;SDS011;4095;48.942;9.104;2023-08-06T04:36:51;3.37;;;2.87;;
8104;SDS011;4095;48.942;9.104;2023-08-06T04:39:17;3.60;;;2.23;;
8104;SDS011;4095;48.942;9.104;2023-08-06T04:41:42;3.53;;;1.97;;
8104;SDS011;4095;48.942;9.104;2023-08-06T04:44:08;2.83;;;2.10;;
8104;SDS011;4095;48.942;9.104;2023-08-06T04:46:34;2.60;;;1.93;;
8104;SDS011;4095;48.942;9.104;2023-08-06T04:48:59;3.07;;;1.87;;
8104;SDS011;4095;48.942;9.104;2023-08-06T04:51:25;3.63;;;2.00;;
8104;SDS011;4095;48.942;9.104;2023-08-06T04:53:50;3.47;;;1.90;;
8104;SDS011;4095;48.942;9.104;2023-08-06T04:56:16;2.30;;;1.73;;
8104;SDS011;4095;48.942;9.104;2023-08-06T04:58:41;2.63;;;1.73;;
8104;SDS011;4095;48.942;9.104;2023-08-06T05:01:07;1.87;;;1.60;;
8104;SDS011;4095;48.942;9.104;2023-08-06T05:03:33;4.43;;;1.77;;
8104;SDS011;4095;48.942;9.104;2023-08-06T05:05:58;3.50;;;1.70;;
8104;SDS011;4095;48.942;9.104;2023-08-06T05:08:24;1.60;;;1.50;;
8104;SDS011;4095;48.942;9.104;2023-08-06T05:10:49;2.57;;;1.60;;
8104;SDS011;4095;48.942;9.104;2023-08-06T05:13:15;1.50;;;1.13;;
8104;SDS011;4095;48.942;9.104;2023-08-06T05:15:41;2.27;;;1.40;;
8104;SDS011;4095;48.942;9.104;2023-08-06T05:18:08;3.90;;;1.70;;
8104;SDS011;4095;48.942;9.104;2023-08-06T05:20:37;3.77;;;1.60;;
8104;SDS011;4095;48.942;9.104;2023-08-06T05:23:03;2.30;;;1.00;;
8104;SDS011;4095;48.942;9.104;2023-08-06T05:25:29;2.90;;;1.43;;
8104;SDS011;4095;48.942;9.104;2023-08-06T05:27:55;3.47;;;1.80;;
8104;SDS011;4095;48.942;9.104;2023-08-06T05:30:20;3.87;;;1.90;;
8104;SDS011;4095;48.942;9.104;2023-08-06T05:32:46;2.67;;;1.50;;
8104;SDS011;4095;48.942;9.104;2023-08-06T05:35:12;2.63;;;1.40;;
8104;SDS011;4095;48.942;9.104;2023-08-06T05:37:37;2.33;;;1.40;;
8104;SDS011;4095;48.942;9.104;2023-08-06T05:40:03;1.57;;;1.20;;
8104;SDS011;4095;48.942;9.104;2023-08-06T05:42:29;1.50;;;1.30;;
8104;SDS011;4095;48.942;9.104;2023-08-06T05:44:55;3.10;;;1.40;;
8104;SDS011;4095;48.942;9.104;2023-08-06T05:47:20;2.97;;;1.37;;
8104;SDS011;4095;48.942;9.104;2023-08-06T05:49:46;3.33;;;1.27;;
8104;SDS011;4095;48.942;9.104;2023-08-06T05:52:12;3.33;;;1.03;;
8104;SDS011;4095;48.942;9.104;2023-08-06T05:54:37;4.00;;;1.40;;
8104;SDS011;4095;48.942;9.104;2023-08-06T05:57:03;1.80;;;1.10;;
8104;SDS011;4095;48.942;9.104;2023-08-06T05:59:29;1.43;;;1.30;;
8104;SDS011;4095;48.942;9.104;2023-08-06T06:01:54;1.93;;;1.23;;
8104;SDS011;4095;48.942;9.104;2023-08-06T06:04:21;2.10;;;1.20;;
8104;SDS011;4095;48.942;9.104;2023-08-06T06:06:46;2.20;;;1.17;;
8104;SDS011;4095;48.942;9.104;2023-08-06T06:09:12;3.60;;;1.20;;
8104;SDS011;4095;48.942;9.104;2023-08-06T06:11:38;2.30;;;1.10;;
8104;SDS011;4095;48.942;9.104;2023-08-06T06:14:04;1.73;;;1.30;;
8104;SDS011;4095;48.942;9.104;2023-08-06T06:16:29;2.63;;;1.20;;
8104;SDS011;4095;48.942;9.104;2023-08-06T06:18:55;1.83;;;1.10;;
8104;SDS011;4095;48.942;9.104;2023-08-06T06:21:22;2.80;;;1.23;;
8104;SDS011;4095;48.942;9.104;2023-08-06T06:23:48;2.90;;;1.33;;
8104;SDS011;4095;48.942;9.104;2023-08-06T06:26:16;1.00;;;0.90;;
8104;SDS011;4095;48.942;9.104;2023-08-06T06:28:42;1.67;;;1.20;;
8104;SDS011;4095;48.942;9.104;2023-08-06T06:31:07;2.90;;;1.30;;
8104;SDS011;4095;48.942;9.104;2023-08-06T06:33:34;2.43;;;1.20;;
8104;SDS011;4095;48.942;9.104;2023-08-06T06:36:00;2.17;;;1.20;;
8104;SDS011;4095;48.942;9.104;2023-08-06T06:38:28;0.97;;;0.90;;
8104;SDS011;4095;48.942;9.104;2023-08-06T06:40:57;1.17;;;1.00;;
8104;SDS011;4095;48.942;9.104;2023-08-06T06:43:23;1.07;;;0.80;;
8104;SDS011;4095;48.942;9.104;2023-08-06T06:45:52;1.10;;;0.90;;
8104;SDS011;4095;48.942;9.104;2023-08-06T06:48:19;0.90;;;0.80;;
8104;SDS011;4095;48.942;9.104;2023-08-06T06:50:47;1.00;;;0.87;;
8104;SDS011;4095;48.942;9.104;2023-08-06T06:53:13;1.70;;;0.90;;
8104;SDS011;4095;48.942;9.104;2023-08-06T06:55:39;1.47;;;0.93;;
8104;SDS011;4095;48.942;9.104;2023-08-06T06:58:04;1.17;;;0.90;;
8104;SDS011;4095;48.942;9.104;2023-08-06T07:00:30;1.60;;;0.90;;
8104;SDS011;4095;48.942;9.104;2023-08-06T07:02:56;1.20;;;0.97;;
8104;SDS011;4095;48.942;9.104;2023-08-06T07:05:21;2.27;;;0.80;;
8104;SDS011;4095;48.942;9.104;2023-08-06T07:07:47;1.73;;;0.90;;
8104;SDS011;4095;48.942;9.104;2023-08-06T07:10:13;2.97;;;0.70;;
8104;SDS011;4095;48.942;9.104;2023-08-06T07:12:38;1.73;;;1.03;;
8104;SDS011;4095;48.942;9.104;2023-08-06T07:15:07;1.57;;;0.90;;
8104;SDS011;4095;48.942;9.104;2023-08-06T07:17:33;0.83;;;0.80;;
8104;SDS011;4095;48.942;9.104;2023-08-06T07:19:58;1.10;;;0.77;;
8104;SDS011;4095;48.942;9.104;2023-08-06T07:22:24;1.90;;;0.87;;
8104;SDS011;4095;48.942;9.104;2023-08-06T07:24:49;3.63;;;0.87;;
8104;SDS011;4095;48.942;9.104;2023-08-06T07:27:15;1.73;;;0.70;;
8104;SDS011;4095;48.942;9.104;2023-08-06T07:29:40;1.90;;;0.90;;
8104;SDS011;4095;48.942;9.104;2023-08-06T07:32:06;1.37;;;0.70;;
8104;SDS011;4095;48.942;9.104;2023-08-06T07:34:32;1.07;;;0.70;;
8104;SDS011;4095;48.942;9.104;2023-08-06T07:36:58;1.40;;;1.30;;
8104;SDS011;4095;48.942;9.104;2023-08-06T07:39:24;1.77;;;0.80;;
8104;SDS011;4095;48.942;9.104;2023-08-06T07:41:50;1.20;;;0.60;;
8104;SDS011;4095;48.942;9.104;2023-08-06T07:44:15;1.20;;;0.80;;
8104;SDS011;4095;48.942;9.104;2023-08-06T07:46:41;3.07;;;0.60;;
8104;SDS011;4095;48.942;9.104;2023-08-06T07:49:07;0.30;;;0.30;;
8104;SDS011;4095;48.942;9.104;2023-08-06T07:51:33;1.30;;;0.50;;
8104;SDS011;4095;48.942;9.104;2023-08-06T07:53:59;1.00;;;0.40;;
8104;SDS011;4095;48.942;9.104;2023-08-06T07:56:24;1.17;;;0.50;;
8104;SDS011;4095;48.942;9.104;2023-08-06T07:58:50;1.00;;;0.60;;
8104;SDS011;4095;48.942;9.104;2023-08-06T08:01:15;0.50;;;0.40;;
8104;SDS011;4095;48.942;9.104;2023-08-06T08:03:41;0.73;;;0.60;;
8104;SDS011;4095;48.942;9.104;2023-08-06T08:06:06;0.40;;;0.33;;
8104;SDS011;4095;48.942;9.104;2023-08-06T08:08:32;0.33;;;0.33;;
8104;SDS011;4095;48.942;9.104;2023-08-06T08:10:58;1.27;;;0.70;;
8104;SDS011;4095;48.942;9.104;2023-08-06T08:13:25;0.70;;;0.40;;
8104;SDS011;4095;48.942;9.104;2023-08-06T08:15:55;0.93;;;0.40;;
8104;SDS011;4095;48.942;9.104;2023-08-06T08:18:24;1.60;;;0.50;;
8104;SDS011;4095;48.942;9.104;2023-08-06T08:20:50;0.30;;;0.30;;
8104;SDS011;4095;48.942;9.104;2023-08-06T08:23:16;2.10;;;0.30;;
8104;SDS011;4095;48.942;9.104;2023-08-06T08:25:42;0.40;;;0.40;;
8104;SDS011;4095;48.942;9.104;2023-08-06T08:28:07;0.93;;;0.30;;
8104;SDS011;4095;48.942;9.104;2023-08-06T08:30:34;0.37;;;0.37;;
8104;SDS011;4095;48.942;9.104;2023-08-06T08:32:59;1.80;;;0.40;;
8104;SDS011;4095;48.942;9.104;2023-08-06T08:35:25;0.63;;;0.20;;
8104;SDS011;4095;48.942;9.104;2023-08-06T08:37:51;0.20;;;0.20;;
8104;SDS011;4095;48.942;9.104;2023-08-06T08:40:16;0.20;;;0.20;;
8104;SDS011;4095;48.942;9.104;2023-08-06T08:42:43;0.93;;;0.30;;
8104;SDS011;4095;48.942;9.104;2023-08-06T08:45:12;0.30;;;0.30;;
8104;SDS011;4095;48.942;9.104;2023-08-06T08:47:39;0.30;;;0.30;;
8104;SDS011;4095;48.942;9.104;2023-08-06T08:50:06;0.30;;;0.30;;
8104;SDS011;4095;48.942;9.104;2023-08-06T08:52:33;0.23;;;0.23;;
8104;SDS011;4095;48.942;9.104;2023-08-06T08:55:01;0.30;;;0.30;;
8104;SDS011;4095;48.942;9.104;2023-08-06T08:57:26;0.27;;;0.20;;
8104;SDS011;4095;48.942;9.104;2023-08-06T08:59:52;0.43;;;0.40;;
8104;SDS011;4095;48.942;9.104;2023-08-06T09:02:18;0.40;;;0.40;;
8104;SDS011;4095;48.942;9.104;2023-08-06T09:04:45;0.23;;;0.23;;
8104;SDS011;4095;48.942;9.104;2023-08-06T09:07:13;0.83;;;0.27;;
8104;SDS011;4095;48.942;9.104;2023-08-06T09:09:43;0.50;;;0.30;;
8104;SDS011;4095;48.942;9.104;2023-08-06T09:12:12;1.50;;;0.30;;
8104;SDS011;4095;48.942;9.104;2023-08-06T09:14:40;0.20;;;0.20;;
8104;SDS011;4095;48.942;9.104;2023-08-06T09:17:06;0.30;;;0.30;;
8104;SDS011;4095;48.942;9.104;2023-08-06T09:19:32;0.27;;;0.27;;
8104;SDS011;4095;48.942;9.104;2023-08-06T09:21:58;0.93;;;0.37;;
8104;SDS011;4095;48.942;9.104;2023-08-06T09:24:24;0.30;;;0.20;;
8104;SDS011;4095;48.942;9.104;2023-08-06T09:26:51;0.37;;;0.20;;
8104;SDS011;4095;48.942;9.104;2023-08-06T09:29:16;0.87;;;0.20;;
8104;SDS011;4095;48.942;9.104;2023-08-06T09:31:43;0.57;;;0.27;;
8104;SDS011;4095;48.942;9.104;2023-08-06T09:34:10;0.33;;;0.27;;
8104;SDS011;4095;48.942;9.104;2023-08-06T09:36:41;0.20;;;0.20;;
8104;SDS011;4095;48.942;9.104;2023-08-06T09:39:14;0.10;;;0.10;;
8104;SDS011;4095;48.942;9.104;2023-08-06T09:41:41;0.10;;;0.10;;
8104;SDS011;4095;48.942;9.104;2023-08-06T09:44:17;0.20;;;0.20;;
8104;SDS011;4095;48.942;9.104;2023-08-06T09:46:50;0.60;;;0.30;;
8104;SDS011;4095;48.942;9.104;2023-08-06T09:49:18;0.30;;;0.23;;
8104;SDS011;4095;48.942;9.104;2023-08-06T09:51:46;0.37;;;0.20;;
8104;SDS011;4095;48.942;9.104;2023-08-06T09:54:15;0.30;;;0.30;;
8104;SDS011;4095;48.942;9.104;2023-08-06T09:56:41;0.30;;;0.30;;
8104;SDS011;4095;48.942;9.104;2023-08-06T09:59:08;0.20;;;0.20;;
8104;SDS011;4095;48.942;9.104;2023-08-06T10:01:34;0.17;;;0.17;;
8104;SDS011;4095;48.942;9.104;2023-08-06T10:04:01;0.67;;;0.30;;
8104;SDS011;4095;48.942;9.104;2023-08-06T10:06:28;0.57;;;0.20;;
8104;SDS011;4095;48.942;9.104;2023-08-06T10:08:55;0.30;;;0.20;;
8104;SDS011;4095;48.942;9.104;2023-08-06T10:11:21;0.43;;;0.30;;
8104;SDS011;4095;48.942;9.104;2023-08-06T10:13:50;0.20;;;0.20;;
8104;SDS011;4095;48.942;9.104;2023-08-06T10:16:20;0.20;;;0.20;;
8104;SDS011;4095;48.942;9.104;2023-08-06T10:18:47;0.20;;;0.20;;
8104;SDS011;4095;48.942;9.104;2023-08-06T10:21:13;0.30;;;0.30;;
8104;SDS011;4095;48.942;9.104;2023-08-06T10:23:40;0.57;;;0.40;;
8104;SDS011;4095;48.942;9.104;2023-08-06T10:26:06;0.50;;;0.40;;
8104;SDS011;4095;48.942;9.104;2023-08-06T10:28:38;0.60;;;0.60;;
8104;SDS011;4095;48.942;9.104;2023-08-06T10:31:04;0.30;;;0.30;;
8104;SDS011;4095;48.942;9.104;2023-08-06T10:33:40;0.40;;;0.40;;
8104;SDS011;4095;48.942;9.104;2023-08-06T10:36:10;0.77;;;0.77;;
8104;SDS011;4095;48.942;9.104;2023-08-06T10:38:49;2.93;;;2.20;;
8104;SDS011;4095;48.942;9.104;2023-08-06T10:41:16;2.80;;;2.30;;
8104;SDS011;4095;48.942;9.104;2023-08-06T10:44:07;2.13;;;1.20;;
8104;SDS011;4095;48.942;9.104;2023-08-06T10:46:35;0.57;;;0.57;;
8104;SDS011;4095;48.942;9.104;2023-08-06T10:49:01;1.30;;;1.20;;
8104;SDS011;4095;48.942;9.104;2023-08-06T10:51:28;0.40;;;0.40;;
8104;SDS011;4095;48.942;9.104;2023-08-06T10:53:54;0.70;;;0.63;;
8104;SDS011;4095;48.942;9.104;2023-08-06T10:56:21;1.10;;;1.00;;
8104;SDS011;4095;48.942;9.104;2023-08-06T10:58:48;1.20;;;0.50;;
8104;SDS011;4095;48.942;9.104;2023-08-06T11:01:16;1.20;;;1.10;;
8104;SDS011;4095;48.942;9.104;2023-08-06T11:03:42;1.70;;;0.93;;
8104;SDS011;4095;48.942;9.104;2023-08-06T11:06:09;1.30;;;0.90;;
8104;SDS011;4095;48.942;9.104;2023-08-06T11:08:36;1.50;;;1.40;;
8104;SDS011;4095;48.942;9.104;2023-08-06T11:13:42;1.23;;;0.83;;
8104;SDS011;4095;48.942;9.104;2023-08-06T11:16:10;0.67;;;0.67;;
8104;SDS011;4095;48.942;9.104;2023-08-06T11:18:38;1.07;;;0.90;;
8104;SDS011;4095;48.942;9.104;2023-08-06T11:21:05;1.37;;;1.00;;
8104;SDS011;4095;48.942;9.104;2023-08-06T11:23:30;1.73;;;1.00;;
8104;SDS011;4095;48.942;9.104;2023-08-06T11:25:56;1.33;;;1.00;;
8104;SDS011;4095;48.942;9.104;2023-08-06T11:28:23;1.30;;;1.10;;
8104;SDS011;4095;48.942;9.104;2023-08-06T11:30:49;0.90;;;0.90;;
8104;SDS011;4095;48.942;9.104;2023-08-06T11:33:22;1.37;;;1.13;;
8104;SDS011;4095;48.942;9.104;2023-08-06T11:35:50;1.40;;;1.27;;
8104;SDS011;4095;48.942;9.104;2023-08-06T11:38:16;1.50;;;1.10;;
8104;SDS011;4095;48.942;9.104;2023-08-06T11:40:44;1.87;;;1.00;;
8104;SDS011;4095;48.942;9.104;2023-08-06T11:43:10;1.80;;;1.20;;
8104;SDS011;4095;48.942;9.104;2023-08-06T11:45:40;2.40;;;1.50;;
8104;SDS011;4095;48.942;9.104;2023-08-06T11:48:06;1.43;;;1.10;;
8104;SDS011;4095;48.942;9.104;2023-08-06T11:50:36;1.40;;;1.30;;
8104;SDS011;4095;48.942;9.104;2023-08-06T11:53:06;2.13;;;1.50;;
8104;SDS011;4095;48.942;9.104;2023-08-06T11:55:32;2.50;;;1.63;;
8104;SDS011;4095;48.942;9.104;2023-08-06T11:57:58;3.03;;;1.47;;
8104;SDS011;4095;48.942;9.104;2023-08-06T12:00:28;2.27;;;1.60;;
8104;SDS011;4095;48.942;9.104;2023-08-06T12:02:54;2.20;;;1.53;;
8104;SDS011;4095;48.942;9.104;2023-08-06T12:05:21;2.83;;;1.90;;
8104;SDS011;4095;48.942;9.104;2023-08-06T12:07:57;3.10;;;1.83;;
8104;SDS011;4095;48.942;9.104;2023-08-06T12:10:24;2.73;;;1.63;;
8104;SDS011;4095;48.942;9.104;2023-08-06T12:12:51;1.87;;;1.70;;
8104;SDS011;4095;48.942;9.104;2023-08-06T12:15:17;2.67;;;2.17;;
8104;SDS011;4095;48.942;9.104;2023-08-06T12:17:43;3.20;;;2.20;;
8104;SDS011;4095;48.942;9.104;2023-08-06T12:20:09;3.63;;;2.63;;
8104;SDS011;4095;48.942;9.104;2023-08-06T12:22:35;4.03;;;2.43;;
8104;SDS011;4095;48.942;9.104;2023-08-06T12:25:03;3.30;;;2.40;;
8104;SDS011;4095;48.942;9.104;2023-08-06T12:27:36;4.53;;;2.50;;
8104;SDS011;4095;48.942;9.104;2023-08-06T12:30:11;3.50;;;2.23;;
8104;SDS011;4095;48.942;9.104;2023-08-06T12:32:38;3.93;;;2.50;;
8104;SDS011;4095;48.942;9.104;2023-08-06T12:35:04;2.67;;;2.40;;
8104;SDS011;4095;48.942;9.104;2023-08-06T12:37:32;3.43;;;2.60;;
8104;SDS011;4095;48.942;9.104;2023-08-06T12:39:58;3.87;;;2.40;;
8104;SDS011;4095;48.942;9.104;2023-08-06T12:42:23;3.90;;;2.40;;
8104;SDS011;4095;48.942;9.104;2023-08-06T12:44:49;3.17;;;2.60;;
8104;SDS011;4095;48.942;9.104;2023-08-06T12:47:15;4.67;;;2.40;;
8104;SDS011;4095;48.942;9.104;2023-08-06T12:49:42;3.73;;;1.93;;
8104;SDS011;4095;48.942;9.104;2023-08-06T12:52:07;2.37;;;2.17;;
8104;SDS011;4095;48.942;9.104;2023-08-06T12:54:34;3.00;;;2.30;;
8104;SDS011;4095;48.942;9.104;2023-08-06T12:57:03;2.90;;;2.30;;
8104;SDS011;4095;48.942;9.104;2023-08-06T12:59:30;3.07;;;2.13;;
8104;SDS011;4095;48.942;9.104;2023-08-06T13:01:55;4.33;;;1.90;;
8104;SDS011;4095;48.942;9.104;2023-08-06T13:04:21;2.53;;;2.20;;
8104;SDS011;4095;48.942;9.104;2023-08-06T13:06:47;2.90;;;1.87;;
8104;SDS011;4095;48.942;9.104;2023-08-06T13:09:13;3.60;;;1.83;;
8104;SDS011;4095;48.942;9.104;2023-08-06T13:11:39;2.87;;;2.00;;
8104;SDS011;4095;48.942;9.104;2023-08-06T13:14:05;2.10;;;1.90;;
8104;SDS011;4095;48.942;9.104;2023-08-06T13:16:33;3.33;;;2.37;;
8104;SDS011;4095;48.942;9.104;2023-08-06T13:18:59;3.80;;;1.97;;
8104;SDS011;4095;48.942;9.104;2023-08-06T13:21:31;2.60;;;1.80;;
8104;SDS011;4095;48.942;9.104;2023-08-06T13:23:59;3.10;;;1.87;;
8104;SDS011;4095;48.942;9.104;2023-08-06T13:26:24;2.40;;;1.90;;
8104;SDS011;4095;48.942;9.104;2023-08-06T13:28:50;1.97;;;1.50;;
8104;SDS011;4095;48.942;9.104;2023-08-06T13:31:16;2.17;;;1.27;;
8104;SDS011;4095;48.942;9.104;2023-08-06T13:33:42;2.10;;;1.47;;
8104;SDS011;4095;48.942;9.104;2023-08-06T13:36:07;2.27;;;1.40;;
8104;SDS011;4095;48.942;9.104;2023-08-06T13:38:33;2.50;;;1.90;;
8104;SDS011;4095;48.942;9.104;2023-08-06T13:41:00;2.90;;;1.90;;
8104;SDS011;4095;48.942;9.104;2023-08-06T13:43:26;1.90;;;1.60;;
8104;SDS011;4095;48.942;9.104;2023-08-06T13:45:52;2.10;;;1.90;;
8104;SDS011;4095;48.942;9.104;2023-08-06T13:48:18;2.43;;;1.63;;
8104;SDS011;4095;48.942;9.104;2023-08-06T13:50:44;1.83;;;1.60;;
8104;SDS011;4095;48.942;9.104;2023-08-06T13:53:09;2.40;;;1.40;;
8104;SDS011;4095;48.942;9.104;2023-08-06T13:55:35;2.47;;;1.10;;
8104;SDS011;4095;48.942;9.104;2023-08-06T13:58:01;1.67;;;1.37;;
8104;SDS011;4095;48.942;9.104;2023-08-06T14:00:26;1.50;;;1.00;;
8104;SDS011;4095;48.942;9.104;2023-08-06T14:02:52;2.87;;;0.90;;
8104;SDS011;4095;48.942;9.104;2023-08-06T14:05:17;1.17;;;0.80;;
8104;SDS011;4095;48.942;9.104;2023-08-06T14:07:43;1.33;;;1.20;;
8104;SDS011;4095;48.942;9.104;2023-08-06T14:10:09;1.40;;;1.03;;
8104;SDS011;4095;48.942;9.104;2023-08-06T14:12:34;1.83;;;1.00;;
8104;SDS011;4095;48.942;9.104;2023-08-06T14:15:01;2.13;;;1.20;;
8104;SDS011;4095;48.942;9.104;2023-08-06T14:17:28;1.63;;;1.40;;
8104;SDS011;4095;48.942;9.104;2023-08-06T14:19:54;1.93;;;1.60;;
8104;SDS011;4095;48.942;9.104;2023-08-06T14:22:19;3.00;;;1.50;;
8104;SDS011;4095;48.942;9.104;2023-08-06T14:24:45;1.63;;;1.50;;
8104;SDS011;4095;48.942;9.104;2023-08-06T14:27:12;1.90;;;1.60;;
8104;SDS011;4095;48.942;9.104;2023-08-06T14:29:37;2.17;;;1.47;;
8104;SDS011;4095;48.942;9.104;2023-08-06T14:32:03;1.87;;;1.30;;
8104;SDS011;4095;48.942;9.104;2023-08-06T14:34:29;1.63;;;1.30;;
8104;SDS011;4095;48.942;9.104;2023-08-06T14:36:54;1.77;;;1.40;;
8104;SDS011;4095;48.942;9.104;2023-08-06T14:39:20;3.93;;;1.53;;
8104;SDS011;4095;48.942;9.104;2023-08-06T14:41:45;2.00;;;1.20;;
8104;SDS011;4095;48.942;9.104;2023-08-06T14:44:12;2.13;;;1.50;;
8104;SDS011;4095;48.942;9.104;2023-08-06T14:46:37;2.47;;;1.43;;
8104;SDS011;4095;48.942;9.104;2023-08-06T14:49:03;2.10;;;1.80;;
8104;SDS011;4095;48.942;9.104;2023-08-06T14:51:28;2.07;;;1.60;;
8104;SDS011;4095;48.942;9.104;2023-08-06T14:53:54;2.43;;;1.70;;
8104;SDS011;4095;48.942;9.104;2023-08-06T14:56:20;2.27;;;1.70;;
8104;SDS011;4095;48.942;9.104;2023-08-06T14:58:45;2.80;;;1.30;;
8104;SDS011;4095;48.942;9.104;2023-08-06T15:01:11;3.77;;;1.50;;
8104;SDS011;4095;48.942;9.104;2023-08-06T15:03:37;2.00;;;1.40;;
8104;SDS011;4095;48.942;9.104;2023-08-06T15:06:03;2.07;;;1.60;;
8104;SDS011;4095;48.942;9.104;2023-08-06T15:08:28;2.80;;;1.30;;
8104;SDS011;4095;48.942;9.104;2023-08-06T15:10:54;1.87;;;1.50;;
8104;SDS011;4095;48.942;9.104;2023-08-06T15:13:20;1.37;;;1.27;;
8104;SDS011;4095;48.942;9.104;2023-08-06T15:15:49;1.57;;;1.30;;